AFP83 LPPT-EDDB
Flight info
| Callsign | AFP83 |
|---|---|
| Flight time | N/A |
| Altitude | 40000 |
| Route | IXIDA DCT TOSDI DCT ZMR DCT NUBLO DCT RONSI DCT DELOG DCT DIDIG DCT ARDOD DCT OBATO UM163 TABOV/N0464F430 UM163 TSU DCT OQQAL DCT RANUX DCT VALEK DCT LIPNI/N0463F410 DCT LIMGO DCT BITBU Z140 ODVUX DCT MASEK T278 KLF KLF1R |
| Aircraft | FA50/M-SDFGHIM1RWXY/H |
Departure
| Time | 2026-05-06 15:36 |
|---|---|
| Airport | Lisbon Humberto Delgado Airport (LPPT) |
Arrival
| Time | N/A |
|---|---|
| Airport | Berlin Brandenburg Airport (EDDB) |
| Time | Latitude | Longitude | Altitude | Speed | Heading |
|---|---|---|---|---|---|
| 2026-05-06 15:12 | 38.78147 | -9.13041 | 381 ft | 0 kts | 121° |
| 2026-05-06 15:26 | 38.78146 | -9.13039 | 378 ft | 0 kts | 121° |
| 2026-05-06 15:26 | 38.78129 | -9.13014 | 378 ft | 7 kts | 157° |
| 2026-05-06 15:26 | 38.78066 | -9.13063 | 378 ft | 12 kts | 221° |
| 2026-05-06 15:27 | 38.77994 | -9.13068 | 378 ft | 11 kts | 166° |
| 2026-05-06 15:27 | 38.77917 | -9.13047 | 378 ft | 11 kts | 169° |
| 2026-05-06 15:27 | 38.77834 | -9.13025 | 378 ft | 12 kts | 173° |
| 2026-05-06 15:27 | 38.77776 | -9.13055 | 378 ft | 8 kts | 240° |
| 2026-05-06 15:28 | 38.77763 | -9.13128 | 378 ft | 8 kts | 258° |
| 2026-05-06 15:28 | 38.77751 | -9.13204 | 378 ft | 8 kts | 259° |
| 2026-05-06 15:28 | 38.77737 | -9.13281 | 378 ft | 9 kts | 257° |
| 2026-05-06 15:28 | 38.77728 | -9.13333 | 378 ft | 0 kts | 254° |
| 2026-05-06 15:29 | 38.77714 | -9.13338 | 378 ft | 7 kts | 167° |
| 2026-05-06 15:29 | 38.77624 | -9.13319 | 378 ft | 15 kts | 182° |
| 2026-05-06 15:29 | 38.77529 | -9.13304 | 378 ft | 13 kts | 169° |
| 2026-05-06 15:29 | 38.77432 | -9.13280 | 378 ft | 14 kts | 168° |
| 2026-05-06 15:30 | 38.77334 | -9.13255 | 378 ft | 14 kts | 171° |
| 2026-05-06 15:30 | 38.77229 | -9.13230 | 378 ft | 15 kts | 168° |
| 2026-05-06 15:30 | 38.77123 | -9.13202 | 378 ft | 16 kts | 167° |
| 2026-05-06 15:30 | 38.77008 | -9.13170 | 378 ft | 16 kts | 169° |
| 2026-05-06 15:31 | 38.76893 | -9.13139 | 378 ft | 17 kts | 167° |
| 2026-05-06 15:31 | 38.76816 | -9.13118 | 378 ft | 7 kts | 173° |
| 2026-05-06 15:31 | 38.76778 | -9.13148 | 378 ft | 7 kts | 269° |
| 2026-05-06 15:32 | 38.76756 | -9.13316 | 378 ft | 11 kts | 258° |
| 2026-05-06 15:32 | 38.76718 | -9.13406 | 378 ft | 12 kts | 217° |
| 2026-05-06 15:32 | 38.76654 | -9.13484 | 378 ft | 13 kts | 256° |
| 2026-05-06 15:32 | 38.76635 | -9.13605 | 378 ft | 14 kts | 261° |
| 2026-05-06 15:33 | 38.76614 | -9.13737 | 378 ft | 15 kts | 258° |
| 2026-05-06 15:33 | 38.76590 | -9.13885 | 378 ft | 19 kts | 259° |
| 2026-05-06 15:33 | 38.76551 | -9.14026 | 378 ft | 13 kts | 226° |
| 2026-05-06 15:33 | 38.76495 | -9.14120 | 378 ft | 13 kts | 258° |
| 2026-05-06 15:34 | 38.76496 | -9.14176 | 379 ft | 5 kts | 285° |
| 2026-05-06 15:34 | 38.76503 | -9.14200 | 378 ft | 2 kts | 294° |
| 2026-05-06 15:34 | 38.76505 | -9.14205 | 378 ft | 0 kts | 294° |
| 2026-05-06 15:34 | 38.76509 | -9.14217 | 378 ft | 2 kts | 294° |
| 2026-05-06 15:35 | 38.76517 | -9.14241 | 378 ft | 3 kts | 294° |
| 2026-05-06 15:35 | 38.76533 | -9.14288 | 378 ft | 9 kts | 293° |
| 2026-05-06 15:35 | 38.76569 | -9.14390 | 378 ft | 13 kts | 298° |
| 2026-05-06 15:35 | 38.76608 | -9.14410 | 379 ft | 0 kts | 25° |
| 2026-05-06 15:36 | 38.76808 | -9.14302 | 379 ft | 70 kts | 22° |
| 2026-05-06 15:36 | 38.77468 | -9.13949 | 380 ft | 129 kts | 21° |
| 2026-05-06 15:36 | 38.78310 | -9.13501 | 899 ft | 131 kts | 19° |
| 2026-05-06 15:36 | 38.79192 | -9.13052 | 1357 ft | 150 kts | 18° |
| 2026-05-06 15:37 | 38.80246 | -9.12541 | 1630 ft | 176 kts | 16° |
| 2026-05-06 15:37 | 38.81418 | -9.12029 | 2013 ft | 179 kts | 14° |
| 2026-05-06 15:37 | 38.82558 | -9.11359 | 2383 ft | 185 kts | 27° |
| 2026-05-06 15:37 | 38.83657 | -9.10474 | 2760 ft | 189 kts | 29° |
| 2026-05-06 15:38 | 38.84697 | -9.09432 | 3250 ft | 187 kts | 39° |
| 2026-05-06 15:38 | 38.85622 | -9.08311 | 3661 ft | 188 kts | 40° |
| 2026-05-06 15:38 | 38.86607 | -9.07121 | 3930 ft | 199 kts | 40° |
| 2026-05-06 15:38 | 38.87652 | -9.05867 | 4203 ft | 213 kts | 40° |
| 2026-05-06 15:39 | 38.88772 | -9.04538 | 4474 ft | 228 kts | 40° |
| 2026-05-06 15:39 | 38.89997 | -9.03102 | 4760 ft | 249 kts | 40° |
| 2026-05-06 15:39 | 38.91331 | -9.01550 | 5042 ft | 269 kts | 40° |
| 2026-05-06 15:39 | 38.92749 | -8.99858 | 5315 ft | 283 kts | 44° |
| 2026-05-06 15:40 | 38.94832 | -8.96803 | 6656 ft | 216 kts | 27° |
| 2026-05-06 15:41 | 38.96081 | -8.95762 | 7229 ft | 213 kts | 42° |
| 2026-05-06 15:41 | 38.97117 | -8.94428 | 7744 ft | 213 kts | 45° |
| 2026-05-06 15:41 | 38.98131 | -8.93049 | 8252 ft | 213 kts | 46° |
| 2026-05-06 15:41 | 38.99151 | -8.91655 | 8757 ft | 214 kts | 46° |
| 2026-05-06 15:42 | 39.00190 | -8.90287 | 9263 ft | 218 kts | 43° |
| 2026-05-06 15:42 | 39.01300 | -8.88917 | 9823 ft | 227 kts | 43° |
| 2026-05-06 15:42 | 39.02462 | -8.87491 | 10434 ft | 234 kts | 43° |
| 2026-05-06 15:42 | 39.03640 | -8.86038 | 11055 ft | 238 kts | 43° |
| 2026-05-06 15:43 | 39.04845 | -8.84541 | 11700 ft | 246 kts | 43° |
| 2026-05-06 15:43 | 39.06100 | -8.82983 | 12406 ft | 252 kts | 43° |
| 2026-05-06 15:43 | 39.07378 | -8.81398 | 13123 ft | 257 kts | 43° |
| 2026-05-06 15:43 | 39.08660 | -8.79809 | 13843 ft | 261 kts | 43° |
| 2026-05-06 15:44 | 39.09968 | -8.78188 | 14569 ft | 263 kts | 43° |
| 2026-05-06 15:44 | 39.11281 | -8.76562 | 15283 ft | 265 kts | 43° |
| 2026-05-06 15:44 | 39.12621 | -8.74903 | 16007 ft | 267 kts | 43° |
| 2026-05-06 15:44 | 39.13957 | -8.73247 | 16723 ft | 268 kts | 43° |
| 2026-05-06 15:45 | 39.15298 | -8.71586 | 17419 ft | 269 kts | 43° |
| 2026-05-06 15:45 | 39.16657 | -8.69903 | 18094 ft | 270 kts | 43° |
| 2026-05-06 15:45 | 39.18027 | -8.68257 | 18728 ft | 272 kts | 40° |
| 2026-05-06 15:45 | 39.19484 | -8.66630 | 19023 ft | 291 kts | 39° |
| 2026-05-06 15:46 | 39.21058 | -8.64771 | 19077 ft | 321 kts | 45° |
| 2026-05-06 15:46 | 39.22675 | -8.62579 | 19202 ft | 346 kts | 46° |
| 2026-05-06 15:46 | 39.24333 | -8.60305 | 19865 ft | 349 kts | 46° |
| 2026-05-06 15:46 | 39.26006 | -8.58015 | 20488 ft | 352 kts | 46° |
| 2026-05-06 15:47 | 39.27680 | -8.55724 | 21066 ft | 356 kts | 46° |
| 2026-05-06 15:47 | 39.29408 | -8.53360 | 21648 ft | 359 kts | 46° |
| 2026-05-06 15:47 | 39.31116 | -8.51027 | 22212 ft | 363 kts | 46° |
| 2026-05-06 15:47 | 39.32848 | -8.48664 | 22770 ft | 366 kts | 46° |
| 2026-05-06 15:48 | 39.34615 | -8.46252 | 23303 ft | 369 kts | 46° |
| 2026-05-06 15:48 | 39.36422 | -8.43839 | 23860 ft | 372 kts | 44° |
| 2026-05-06 15:48 | 39.38258 | -8.41479 | 24340 ft | 376 kts | 44° |
| 2026-05-06 15:48 | 39.40115 | -8.39090 | 24805 ft | 380 kts | 44° |
| 2026-05-06 15:49 | 39.42032 | -8.36699 | 25322 ft | 382 kts | 42° |
| 2026-05-06 15:49 | 39.43960 | -8.34295 | 25754 ft | 387 kts | 44° |
| 2026-05-06 15:49 | 39.45790 | -8.31972 | 26105 ft | 392 kts | 44° |
| 2026-05-06 15:49 | 39.47779 | -8.29430 | 26126 ft | 406 kts | 44° |
| 2026-05-06 15:50 | 39.49826 | -8.26806 | 26145 ft | 419 kts | 44° |
| 2026-05-06 15:50 | 39.51947 | -8.24084 | 26192 ft | 430 kts | 44° |
| 2026-05-06 15:50 | 39.54088 | -8.21332 | 26534 ft | 433 kts | 44° |
| 2026-05-06 15:50 | 39.56227 | -8.18582 | 26882 ft | 435 kts | 44° |
| 2026-05-06 15:51 | 39.58403 | -8.15780 | 27211 ft | 437 kts | 44° |
| 2026-05-06 15:51 | 39.60580 | -8.12977 | 27540 ft | 440 kts | 44° |
| 2026-05-06 15:51 | 39.62765 | -8.10159 | 27900 ft | 443 kts | 44° |
| 2026-05-06 15:51 | 39.64977 | -8.07304 | 28276 ft | 445 kts | 44° |
| 2026-05-06 15:52 | 39.67164 | -8.04478 | 28588 ft | 446 kts | 44° |
| 2026-05-06 15:52 | 39.69406 | -8.01578 | 28751 ft | 449 kts | 44° |
| 2026-05-06 15:52 | 39.71616 | -7.98718 | 29007 ft | 450 kts | 44° |
| 2026-05-06 15:52 | 39.73833 | -7.95846 | 29254 ft | 451 kts | 44° |
| 2026-05-06 15:53 | 39.76073 | -7.92940 | 29422 ft | 454 kts | 44° |
| 2026-05-06 15:53 | 39.78329 | -7.90011 | 29694 ft | 455 kts | 44° |
| 2026-05-06 15:53 | 39.80578 | -7.87089 | 29907 ft | 456 kts | 44° |
| 2026-05-06 15:53 | 39.82825 | -7.84165 | 30116 ft | 457 kts | 44° |
| 2026-05-06 15:54 | 39.85061 | -7.81253 | 30532 ft | 454 kts | 44° |
| 2026-05-06 15:54 | 39.87299 | -7.78336 | 31137 ft | 445 kts | 44° |
| 2026-05-06 15:54 | 39.91732 | -7.72550 | 31368 ft | 453 kts | 44° |
| 2026-05-06 15:55 | 39.93964 | -7.69632 | 31625 ft | 453 kts | 44° |
| 2026-05-06 15:55 | 39.96201 | -7.66707 | 31777 ft | 456 kts | 44° |
| 2026-05-06 15:55 | 39.98452 | -7.63757 | 31951 ft | 458 kts | 44° |
| 2026-05-06 15:55 | 40.00691 | -7.60823 | 32181 ft | 458 kts | 44° |
| 2026-05-06 15:56 | 40.02948 | -7.57860 | 32329 ft | 460 kts | 44° |
| 2026-05-06 15:56 | 40.05220 | -7.54875 | 32554 ft | 461 kts | 44° |
| 2026-05-06 15:56 | 40.07470 | -7.51917 | 32717 ft | 462 kts | 44° |
| 2026-05-06 15:56 | 40.09755 | -7.48910 | 32880 ft | 464 kts | 44° |
| 2026-05-06 15:57 | 40.11962 | -7.46002 | 33049 ft | 465 kts | 44° |
| 2026-05-06 15:57 | 40.14158 | -7.43105 | 33178 ft | 467 kts | 44° |
| 2026-05-06 15:57 | 40.16270 | -7.40317 | 33322 ft | 468 kts | 44° |
| 2026-05-06 15:57 | 40.18519 | -7.37345 | 33519 ft | 468 kts | 44° |
| 2026-05-06 15:58 | 40.20796 | -7.34333 | 33641 ft | 470 kts | 44° |
| 2026-05-06 15:58 | 40.22998 | -7.31417 | 33844 ft | 469 kts | 44° |
| 2026-05-06 15:58 | 40.25200 | -7.28496 | 34864 ft | 447 kts | 44° |
| 2026-05-06 15:58 | 40.27374 | -7.25613 | 35034 ft | 448 kts | 44° |
| 2026-05-06 15:59 | 40.31802 | -7.19730 | 35171 ft | 453 kts | 44° |
| 2026-05-06 15:59 | 40.33992 | -7.16816 | 35334 ft | 452 kts | 44° |
| 2026-05-06 15:59 | 40.36205 | -7.13870 | 35431 ft | 454 kts | 44° |
| 2026-05-06 16:00 | 40.40667 | -7.07918 | 35617 ft | 456 kts | 44° |
| 2026-05-06 16:00 | 40.45140 | -7.01939 | 35799 ft | 459 kts | 44° |
| 2026-05-06 16:01 | 40.49602 | -6.95963 | 35958 ft | 460 kts | 44° |
| 2026-05-06 16:01 | 40.51867 | -6.92924 | 36068 ft | 460 kts | 44° |
| 2026-05-06 16:01 | 40.54094 | -6.89936 | 36170 ft | 461 kts | 44° |
| 2026-05-06 16:02 | 40.56361 | -6.86888 | 36284 ft | 462 kts | 44° |
| 2026-05-06 16:02 | 40.58592 | -6.83885 | 36410 ft | 462 kts | 44° |
| 2026-05-06 16:02 | 40.60848 | -6.80847 | 36532 ft | 462 kts | 44° |
| 2026-05-06 16:02 | 40.63089 | -6.77825 | 36652 ft | 462 kts | 44° |
| 2026-05-06 16:03 | 40.65339 | -6.74789 | 36772 ft | 462 kts | 44° |
| 2026-05-06 16:03 | 40.67605 | -6.71728 | 36894 ft | 462 kts | 44° |
| 2026-05-06 16:03 | 40.69841 | -6.68704 | 37016 ft | 462 kts | 44° |
| 2026-05-06 16:03 | 40.72110 | -6.65633 | 37139 ft | 462 kts | 44° |
| 2026-05-06 16:04 | 40.74358 | -6.62586 | 37260 ft | 462 kts | 44° |
| 2026-05-06 16:04 | 40.76591 | -6.59556 | 37383 ft | 462 kts | 44° |
| 2026-05-06 16:04 | 40.78832 | -6.56514 | 37503 ft | 462 kts | 44° |
| 2026-05-06 16:04 | 40.81094 | -6.53440 | 37627 ft | 462 kts | 44° |
| 2026-05-06 16:05 | 40.83306 | -6.50428 | 37745 ft | 462 kts | 44° |
| 2026-05-06 16:05 | 40.85563 | -6.47355 | 37868 ft | 461 kts | 44° |
| 2026-05-06 16:05 | 40.90036 | -6.41252 | 37929 ft | 466 kts | 44° |
| 2026-05-06 16:06 | 40.94590 | -6.35026 | 37930 ft | 471 kts | 44° |
| 2026-05-06 16:06 | 40.99037 | -6.28935 | 37927 ft | 474 kts | 44° |
| 2026-05-06 16:07 | 41.03956 | -6.23061 | 37924 ft | 476 kts | 40° |
| 2026-05-06 16:07 | 41.08719 | -6.17387 | 37926 ft | 477 kts | 40° |
| 2026-05-06 16:08 | 41.13412 | -6.11777 | 37919 ft | 477 kts | 40° |
| 2026-05-06 16:08 | 41.18326 | -6.05891 | 37915 ft | 475 kts | 40° |
| 2026-05-06 16:09 | 41.23230 | -6.00004 | 37915 ft | 473 kts | 40° |
| 2026-05-06 16:09 | 41.27529 | -5.94834 | 37916 ft | 472 kts | 40° |
| 2026-05-06 16:10 | 41.31750 | -5.89748 | 37916 ft | 472 kts | 40° |
| 2026-05-06 16:10 | 41.36616 | -5.83874 | 37918 ft | 471 kts | 40° |
| 2026-05-06 16:11 | 41.41466 | -5.78006 | 37914 ft | 471 kts | 40° |
| 2026-05-06 16:11 | 41.46319 | -5.72122 | 37914 ft | 471 kts | 40° |
| 2026-05-06 16:12 | 41.51181 | -5.66214 | 37913 ft | 471 kts | 40° |
| 2026-05-06 16:12 | 41.53833 | -5.63689 | 37907 ft | 465 kts | 25° |
| 2026-05-06 16:12 | 41.56767 | -5.61875 | 37935 ft | 463 kts | 20° |
| 2026-05-06 16:13 | 41.62687 | -5.58533 | 37917 ft | 463 kts | 20° |
| 2026-05-06 16:13 | 41.68663 | -5.55161 | 37919 ft | 463 kts | 20° |
| 2026-05-06 16:14 | 41.74603 | -5.51802 | 37921 ft | 464 kts | 20° |
| 2026-05-06 16:14 | 41.80594 | -5.48408 | 37921 ft | 464 kts | 20° |
| 2026-05-06 16:15 | 41.86538 | -5.45033 | 37921 ft | 464 kts | 20° |
| 2026-05-06 16:15 | 41.92503 | -5.41640 | 37927 ft | 463 kts | 20° |
| 2026-05-06 16:16 | 41.98434 | -5.38259 | 37929 ft | 463 kts | 20° |
| 2026-05-06 16:16 | 42.04340 | -5.34885 | 37927 ft | 463 kts | 20° |
| 2026-05-06 16:17 | 42.10198 | -5.31532 | 37930 ft | 463 kts | 20° |
| 2026-05-06 16:17 | 42.16053 | -5.28174 | 37937 ft | 462 kts | 20° |
| 2026-05-06 16:18 | 42.21993 | -5.24761 | 37939 ft | 462 kts | 20° |
| 2026-05-06 16:18 | 42.27937 | -5.21338 | 37946 ft | 462 kts | 20° |
| 2026-05-06 16:19 | 42.33832 | -5.17937 | 37941 ft | 462 kts | 20° |
| 2026-05-06 16:19 | 42.39781 | -5.14497 | 37946 ft | 461 kts | 20° |
| 2026-05-06 16:20 | 42.45702 | -5.11066 | 37953 ft | 461 kts | 20° |
| 2026-05-06 16:20 | 42.51597 | -5.07643 | 37958 ft | 461 kts | 20° |
| 2026-05-06 16:21 | 42.57508 | -5.04204 | 37957 ft | 460 kts | 20° |
| 2026-05-06 16:21 | 42.63419 | -5.00758 | 37958 ft | 460 kts | 20° |
| 2026-05-06 16:22 | 42.69292 | -4.97326 | 37956 ft | 460 kts | 20° |
| 2026-05-06 16:22 | 42.75183 | -4.93876 | 37955 ft | 459 kts | 20° |
| 2026-05-06 16:23 | 42.81059 | -4.90428 | 37956 ft | 459 kts | 20° |
| 2026-05-06 16:23 | 42.86971 | -4.86952 | 37953 ft | 459 kts | 20° |
| 2026-05-06 16:24 | 42.92830 | -4.83499 | 37952 ft | 459 kts | 20° |
| 2026-05-06 16:24 | 42.98711 | -4.80027 | 37941 ft | 459 kts | 20° |
| 2026-05-06 16:25 | 43.04592 | -4.76547 | 37945 ft | 458 kts | 20° |
| 2026-05-06 16:25 | 43.10444 | -4.73077 | 37950 ft | 457 kts | 20° |
| 2026-05-06 16:26 | 43.16313 | -4.69590 | 37959 ft | 457 kts | 20° |
| 2026-05-06 16:26 | 43.22168 | -4.66103 | 37966 ft | 457 kts | 20° |
| 2026-05-06 16:27 | 43.28013 | -4.62615 | 37974 ft | 457 kts | 20° |
| 2026-05-06 16:27 | 43.33856 | -4.59121 | 37974 ft | 457 kts | 20° |